createdAt,value
2023-02-27T00:00:16.609Z,-1.81
2023-02-27T00:02:43.869Z,-1.75
2023-02-27T00:05:10.615Z,-1.76
2023-02-27T00:07:37.349Z,-1.84
2023-02-27T00:10:06.730Z,-1.80
2023-02-27T00:12:37.864Z,-1.77
2023-02-27T00:15:08.474Z,-1.89
2023-02-27T00:17:35.272Z,-2.01
2023-02-27T00:20:01.915Z,-1.99
2023-02-27T00:22:28.456Z,-2.13
2023-02-27T00:24:55.085Z,-2.12
2023-02-27T00:27:21.628Z,-2.04
2023-02-27T00:29:48.581Z,-1.93
2023-02-27T00:32:15.177Z,-1.84
2023-02-27T00:34:41.984Z,-1.91
2023-02-27T00:37:10.265Z,-1.92
2023-02-27T00:39:36.831Z,-1.90
2023-02-27T00:42:03.393Z,-1.88
2023-02-27T00:44:29.948Z,-1.97
2023-02-27T00:46:56.498Z,-1.96
2023-02-27T00:49:23.062Z,-2.02
2023-02-27T00:51:49.712Z,-1.91
2023-02-27T00:54:16.276Z,-1.92
2023-02-27T00:56:42.889Z,-1.91
2023-02-27T00:59:09.883Z,-1.85
2023-02-27T01:01:36.466Z,-1.79
2023-02-27T01:04:03.166Z,-1.93
2023-02-27T01:06:30.387Z,-1.85
2023-02-27T01:08:56.923Z,-1.84
2023-02-27T01:11:24.782Z,-1.99
2023-02-27T01:13:51.873Z,-1.99
2023-02-27T01:16:18.578Z,-1.89
2023-02-27T01:18:45.638Z,-1.90
2023-02-27T01:21:12.224Z,-1.92
2023-02-27T01:23:38.778Z,-1.90
2023-02-27T01:26:05.337Z,-1.95
2023-02-27T01:28:33.775Z,-2.03
2023-02-27T01:31:00.381Z,-1.91
2023-02-27T01:33:26.951Z,-1.89
2023-02-27T01:35:53.485Z,-1.93
2023-02-27T01:38:20.085Z,-1.97
2023-02-27T01:40:46.675Z,-1.95
2023-02-27T01:43:18.305Z,-2.02
2023-02-27T01:45:47.954Z,-1.98
2023-02-27T01:48:17.163Z,-2.00
2023-02-27T01:50:46.827Z,-2.04
2023-02-27T01:53:13.369Z,-2.00
2023-02-27T01:55:39.950Z,-1.90
2023-02-27T01:58:07.022Z,-1.99
2023-02-27T02:00:33.611Z,-1.93
2023-02-27T02:03:12.367Z,-1.95
2023-02-27T02:05:40.989Z,-1.93
2023-02-27T02:08:08.163Z,-1.95
2023-02-27T02:10:34.728Z,-2.04
2023-02-27T02:13:03.522Z,-2.04
2023-02-27T02:15:32.534Z,-2.04
2023-02-27T02:18:13.419Z,-2.05
2023-02-27T02:20:48.800Z,-2.04
2023-02-27T02:23:23.102Z,-2.00
2023-02-27T02:25:53.122Z,-2.11
2023-02-27T02:28:38.848Z,-2.13
2023-02-27T02:31:21.337Z,-2.15
2023-02-27T02:34:06.754Z,-2.10
2023-02-27T02:36:51.257Z,-2.09
2023-02-27T02:39:34.264Z,-2.14
2023-02-27T02:42:04.928Z,-2.15
2023-02-27T02:44:40.165Z,-2.18
2023-02-27T02:47:12.558Z,-2.21
2023-02-27T02:49:43.388Z,-2.17
2023-02-27T02:52:09.886Z,-2.11
2023-02-27T02:54:36.345Z,-2.14
2023-02-27T02:57:05.612Z,-2.22
2023-02-27T02:59:39.041Z,-2.16
2023-02-27T03:02:12.442Z,-2.27
2023-02-27T03:04:43.441Z,-2.18
2023-02-27T03:07:30.601Z,-2.17
2023-02-27T03:10:09.339Z,-2.16
2023-02-27T03:12:36.377Z,-2.30
2023-02-27T03:15:26.330Z,-2.26
2023-02-27T03:17:54.080Z,-2.33
2023-02-27T03:20:34.584Z,-2.28
2023-02-27T03:23:02.263Z,-2.36
2023-02-27T03:25:28.867Z,-2.37
2023-02-27T03:28:15.636Z,-2.36
2023-02-27T03:30:47.201Z,-2.31
2023-02-27T03:33:25.001Z,-2.30
2023-02-27T03:35:51.500Z,-2.36
2023-02-27T03:38:27.935Z,-2.36
2023-02-27T03:41:09.948Z,-2.28
2023-02-27T03:43:46.989Z,-2.25
2023-02-27T03:46:21.778Z,-2.38
2023-02-27T03:48:50.784Z,-2.24
2023-02-27T03:51:21.188Z,-2.17
2023-02-27T03:53:49.281Z,-2.15
2023-02-27T03:56:16.899Z,-2.41
2023-02-27T03:58:43.692Z,-2.19
2023-02-27T04:01:10.309Z,-2.21
2023-02-27T04:03:37.772Z,-2.18
2023-02-27T04:06:24.606Z,-2.26
2023-02-27T04:08:54.732Z,-2.21
2023-02-27T04:11:21.216Z,-2.33
2023-02-27T04:14:02.991Z,-2.41
2023-02-27T04:16:56.028Z,-2.30
2023-02-27T04:19:22.520Z,-2.23
2023-02-27T04:21:56.758Z,-2.27
2023-02-27T04:24:29.433Z,-2.22
2023-02-27T04:26:59.614Z,-2.21
2023-02-27T04:29:48.873Z,-2.25
2023-02-27T04:32:17.440Z,-2.26
2023-02-27T04:34:45.638Z,-2.23
2023-02-27T04:37:13.403Z,-2.29
2023-02-27T04:39:42.358Z,-2.27
2023-02-27T04:42:13.492Z,-2.21
2023-02-27T04:44:40.133Z,-2.36
2023-02-27T04:47:07.244Z,-2.30
2023-02-27T04:49:44.687Z,-2.35
2023-02-27T04:52:40.760Z,-2.43
2023-02-27T04:55:12.166Z,-2.44
2023-02-27T04:57:41.334Z,-2.40
2023-02-27T05:00:09.534Z,-2.46
2023-02-27T05:02:37.225Z,-2.44
2023-02-27T05:05:05.062Z,-2.48
2023-02-27T05:07:33.156Z,-2.45
2023-02-27T05:10:04.068Z,-2.52
2023-02-27T05:12:33.738Z,-2.45
2023-02-27T05:15:02.497Z,-2.44
2023-02-27T05:17:33.409Z,-2.46
2023-02-27T05:20:00.093Z,-2.46
2023-02-27T05:22:33.448Z,-2.52
2023-02-27T05:25:02.771Z,-2.53
2023-02-27T05:27:38.337Z,-2.50
2023-02-27T05:30:06.560Z,-2.43
2023-02-27T05:32:47.903Z,-2.46
2023-02-27T05:35:20.829Z,-2.39
2023-02-27T05:37:52.339Z,-2.51
2023-02-27T05:40:21.374Z,-2.49
2023-02-27T05:42:50.111Z,-2.45
2023-02-27T05:45:21.003Z,-2.50
2023-02-27T05:47:49.486Z,-2.59
2023-02-27T05:50:17.421Z,-2.53
2023-02-27T05:52:44.503Z,-2.49
2023-02-27T05:55:18.597Z,-2.56
2023-02-27T05:57:52.982Z,-2.54
2023-02-27T06:00:33.886Z,-2.46
2023-02-27T06:03:00.498Z,-2.47
2023-02-27T06:05:27.306Z,-2.56
2023-02-27T06:07:53.809Z,-2.51
2023-02-27T06:10:20.685Z,-2.50
2023-02-27T06:12:47.931Z,-2.57
2023-02-27T06:15:14.507Z,-2.53
2023-02-27T06:17:41.130Z,-2.52
2023-02-27T06:20:08.072Z,-2.53
2023-02-27T06:22:34.771Z,-2.47
2023-02-27T06:25:01.398Z,-2.47
2023-02-27T06:27:27.978Z,-2.51
2023-02-27T06:29:54.572Z,-2.49
2023-02-27T06:32:21.523Z,-2.36
2023-02-27T06:34:48.155Z,-2.38
2023-02-27T06:37:14.698Z,-2.41
2023-02-27T06:39:41.238Z,-2.37
2023-02-27T06:42:07.779Z,-2.32
2023-02-27T06:44:34.293Z,-2.23
2023-02-27T06:47:00.864Z,-2.28
2023-02-27T06:49:27.427Z,-2.27
2023-02-27T06:51:53.980Z,-2.09
2023-02-27T06:54:51.325Z,-2.00
2023-02-27T06:57:18.022Z,-1.91
2023-02-27T06:59:45.339Z,-1.84
2023-02-27T07:02:15.580Z,-1.92
2023-02-27T07:04:42.253Z,-1.80
2023-02-27T07:07:32.939Z,-1.83
2023-02-27T07:09:55.320Z,-1.68
2023-02-27T07:12:22.087Z,-1.70
2023-02-27T07:14:48.650Z,-1.52
2023-02-27T07:17:15.188Z,-1.43
2023-02-27T07:19:41.707Z,-1.59
2023-02-27T07:22:09.733Z,-1.42
2023-02-27T07:24:36.810Z,-1.42
2023-02-27T07:27:03.439Z,-1.35
2023-02-27T07:29:30.097Z,-1.27
2023-02-27T07:31:56.732Z,-1.13
2023-02-27T07:34:23.249Z,-1.03
2023-02-27T07:36:50.243Z,-0.92
2023-02-27T07:39:16.778Z,-0.91
2023-02-27T07:41:43.348Z,-0.83
2023-02-27T07:44:16.470Z,-0.77
2023-02-27T07:46:44.866Z,-0.78
2023-02-27T07:49:11.437Z,-0.61
2023-02-27T07:51:37.993Z,-0.60
2023-02-27T07:54:04.651Z,-0.49
2023-02-27T07:56:31.270Z,-0.48
2023-02-27T07:58:57.810Z,-0.47
2023-02-27T08:01:24.342Z,-0.39
2023-02-27T08:03:50.971Z,-0.27
2023-02-27T08:06:17.571Z,-0.36
2023-02-27T08:08:44.148Z,-0.24
2023-02-27T08:11:11.045Z,-0.19
2023-02-27T08:16:24.211Z,0.07
2023-02-27T08:18:50.789Z,0.18
2023-02-27T08:21:17.348Z,0.30
2023-02-27T08:23:43.871Z,0.48
2023-02-27T08:26:10.916Z,0.57
2023-02-27T08:28:37.796Z,0.52
2023-02-27T08:31:04.461Z,0.64
2023-02-27T08:33:30.988Z,0.72
2023-02-27T08:35:57.651Z,0.82
2023-02-27T08:38:26.308Z,1.05
2023-02-27T08:40:55.738Z,1.35
2023-02-27T08:43:22.421Z,1.53
2023-02-27T08:45:49.268Z,1.85
2023-02-27T08:48:16.535Z,2.16
2023-02-27T08:50:43.220Z,2.31
2023-02-27T08:53:10.072Z,2.11
2023-02-27T08:55:36.621Z,2.29
2023-02-27T08:58:03.193Z,2.60
2023-02-27T09:00:29.915Z,2.88
2023-02-27T09:02:56.784Z,2.93
2023-02-27T09:05:23.415Z,3.59
2023-02-27T09:07:50.491Z,4.33
2023-02-27T09:10:17.961Z,4.49
2023-02-27T09:12:44.535Z,4.43
2023-02-27T09:15:11.603Z,4.03
2023-02-27T09:17:38.172Z,3.66
2023-02-27T09:20:05.155Z,3.60
2023-02-27T09:22:31.828Z,3.47
2023-02-27T09:24:58.376Z,3.12
2023-02-27T09:27:26.075Z,3.28
2023-02-27T09:29:58.378Z,3.44
2023-02-27T09:32:25.651Z,3.84
2023-02-27T09:34:52.279Z,4.02
2023-02-27T09:37:21.904Z,3.51
2023-02-27T09:39:48.501Z,3.34
2023-02-27T09:42:19.249Z,3.17
2023-02-27T09:44:59.331Z,2.77
2023-02-27T09:47:30.078Z,2.96
2023-02-27T09:50:07.157Z,2.97
2023-02-27T09:52:34.713Z,3.20
2023-02-27T09:55:01.322Z,3.71
2023-02-27T09:57:30.861Z,4.02
2023-02-27T10:00:00.040Z,4.18
2023-02-27T10:02:32.476Z,4.40
2023-02-27T10:05:03.625Z,4.36
2023-02-27T10:07:42.500Z,4.86
2023-02-27T10:10:09.024Z,5.36
2023-02-27T10:12:47.800Z,5.49
2023-02-27T10:15:16.414Z,5.12
2023-02-27T10:17:44.398Z,4.89
2023-02-27T10:20:14.630Z,4.97
2023-02-27T10:22:42.856Z,5.23
2023-02-27T10:25:28.708Z,5.34
2023-02-27T10:27:59.146Z,4.99
2023-02-27T10:30:30.849Z,5.19
2023-02-27T10:33:12.983Z,5.26
2023-02-27T10:35:40.260Z,5.28
2023-02-27T10:38:10.859Z,4.74
2023-02-27T10:40:37.476Z,5.24
2023-02-27T10:43:06.202Z,5.39
2023-02-27T10:45:33.397Z,5.40
2023-02-27T10:48:04.447Z,5.89
2023-02-27T10:50:32.342Z,6.02
2023-02-27T10:53:00.250Z,6.31
2023-02-27T10:55:36.005Z,5.84
2023-02-27T10:58:02.882Z,6.08
2023-02-27T11:00:31.654Z,5.97
2023-02-27T11:02:58.204Z,5.92
2023-02-27T11:05:34.621Z,5.99
2023-02-27T11:08:20.761Z,6.04
2023-02-27T11:10:54.684Z,5.83
2023-02-27T11:13:22.395Z,5.96
2023-02-27T11:16:05.989Z,6.10
2023-02-27T11:18:32.739Z,6.59
2023-02-27T11:21:25.968Z,7.00
2023-02-27T11:23:57.420Z,7.23
2023-02-27T11:26:25.777Z,7.57
2023-02-27T11:29:15.125Z,7.66
2023-02-27T11:31:49.099Z,8.04
2023-02-27T11:34:21.919Z,7.74
2023-02-27T11:36:49.277Z,7.93
2023-02-27T11:39:23.239Z,8.14
2023-02-27T11:41:49.808Z,8.33
2023-02-27T11:44:17.679Z,8.44
2023-02-27T11:46:50.691Z,8.86
2023-02-27T11:49:37.484Z,8.52
2023-02-27T11:52:12.584Z,8.20
2023-02-27T11:54:53.887Z,7.91
2023-02-27T11:57:40.659Z,6.94
2023-02-27T12:00:07.400Z,6.87
2023-02-27T12:02:46.106Z,7.41
2023-02-27T12:05:17.247Z,7.59
2023-02-27T12:07:48.792Z,7.60
2023-02-27T12:10:22.265Z,7.48
2023-02-27T12:12:52.984Z,6.67
2023-02-27T12:15:22.493Z,6.52
2023-02-27T12:18:04.213Z,5.67
2023-02-27T12:20:39.951Z,5.67
2023-02-27T12:23:11.851Z,5.47
2023-02-27T12:25:41.197Z,5.35
2023-02-27T12:28:08.361Z,5.42
2023-02-27T12:30:47.182Z,5.30
2023-02-27T12:33:16.690Z,5.10
2023-02-27T12:35:43.718Z,5.12
2023-02-27T12:38:12.073Z,5.08
2023-02-27T12:40:46.074Z,4.80
2023-02-27T12:43:31.476Z,4.71
2023-02-27T12:46:05.204Z,4.77
2023-02-27T12:48:41.943Z,4.99
2023-02-27T12:51:16.746Z,5.17
2023-02-27T12:53:55.154Z,5.11
2023-02-27T12:56:22.137Z,5.20
2023-02-27T12:58:58.213Z,5.17
2023-02-27T13:01:27.980Z,4.97
2023-02-27T13:03:57.621Z,4.95
2023-02-27T13:06:29.785Z,4.88
2023-02-27T13:09:02.515Z,4.87
2023-02-27T13:11:35.104Z,4.72
2023-02-27T13:14:03.322Z,4.57
2023-02-27T13:16:35.980Z,4.58
2023-02-27T13:19:06.770Z,4.65
2023-02-27T13:21:35.344Z,4.49
2023-02-27T13:24:02.444Z,4.48
2023-02-27T13:26:31.000Z,4.57
2023-02-27T13:28:57.981Z,4.53
2023-02-27T13:31:37.678Z,4.42
2023-02-27T13:34:18.165Z,4.33
2023-02-27T13:36:49.472Z,4.21
2023-02-27T13:39:34.923Z,4.03
2023-02-27T13:42:01.469Z,3.88
2023-02-27T13:44:29.001Z,3.95
2023-02-27T13:46:55.590Z,4.18
2023-02-27T13:49:29.284Z,4.49
2023-02-27T13:51:59.660Z,4.62
2023-02-27T13:54:26.445Z,4.74
2023-02-27T13:56:57.650Z,4.53
2023-02-27T13:59:31.118Z,4.45
2023-02-27T14:01:58.682Z,4.46
2023-02-27T14:04:26.563Z,4.61
2023-02-27T14:07:21.360Z,4.50
2023-02-27T14:09:48.945Z,4.35
2023-02-27T14:12:44.646Z,4.15
2023-02-27T14:15:18.421Z,3.99
2023-02-27T14:17:45.731Z,4.03
2023-02-27T14:20:12.219Z,3.87
2023-02-27T14:22:40.128Z,3.57
2023-02-27T14:25:12.807Z,3.49
2023-02-27T14:27:48.154Z,3.30
2023-02-27T14:30:29.360Z,3.26
2023-02-27T14:32:58.301Z,3.43
2023-02-27T14:35:25.444Z,3.60
2023-02-27T14:37:53.563Z,3.54
2023-02-27T14:40:29.664Z,3.50
2023-02-27T14:43:03.535Z,3.34
2023-02-27T14:45:31.112Z,3.29
2023-02-27T14:47:57.708Z,3.11
2023-02-27T14:50:32.474Z,3.18
2023-02-27T14:52:59.089Z,3.32
2023-02-27T14:55:30.041Z,3.10
2023-02-27T14:58:00.964Z,3.21
2023-02-27T15:00:44.179Z,3.07
2023-02-27T15:03:24.266Z,2.93
2023-02-27T15:05:51.774Z,2.97
2023-02-27T15:08:20.380Z,2.70
2023-02-27T15:10:47.006Z,2.79
2023-02-27T15:13:27.978Z,2.77
2023-02-27T15:16:16.573Z,2.73
2023-02-27T15:18:43.457Z,2.72
2023-02-27T15:21:12.784Z,2.91
2023-02-27T15:23:39.358Z,2.95
2023-02-27T15:26:06.228Z,2.96
2023-02-27T15:28:36.180Z,3.04
2023-02-27T15:31:02.790Z,3.04
2023-02-27T15:33:30.035Z,2.97
2023-02-27T15:35:57.073Z,2.92
2023-02-27T15:38:30.946Z,2.91
2023-02-27T15:40:57.867Z,2.92
2023-02-27T15:43:24.998Z,2.90
2023-02-27T15:45:51.983Z,2.80
2023-02-27T15:48:18.553Z,2.80
2023-02-27T15:50:49.324Z,2.68
2023-02-27T15:53:17.947Z,2.66
2023-02-27T15:55:50.771Z,2.60
2023-02-27T15:58:28.516Z,2.48
2023-02-27T16:01:00.886Z,2.53
2023-02-27T16:03:33.177Z,2.48
2023-02-27T16:05:59.962Z,2.55
2023-02-27T16:08:27.444Z,2.46
2023-02-27T16:10:54.003Z,2.49
2023-02-27T16:13:26.785Z,2.46
2023-02-27T16:16:19.412Z,2.35
2023-02-27T16:18:47.386Z,2.33
2023-02-27T16:21:15.419Z,2.19
2023-02-27T16:23:42.204Z,2.09
2023-02-27T16:26:08.699Z,2.14
2023-02-27T16:28:43.081Z,2.08
2023-02-27T16:31:20.666Z,2.06
2023-02-27T16:33:47.901Z,2.07
2023-02-27T16:36:16.246Z,2.06
2023-02-27T16:38:42.956Z,1.99
2023-02-27T16:41:12.957Z,2.00
2023-02-27T16:43:39.568Z,1.95
2023-02-27T16:46:06.579Z,1.93
2023-02-27T16:48:33.171Z,1.88
2023-02-27T16:50:59.751Z,1.80
2023-02-27T16:53:26.312Z,1.87
2023-02-27T16:55:55.170Z,1.75
2023-02-27T16:58:21.852Z,1.79
2023-02-27T17:00:48.461Z,1.77
2023-02-27T17:03:15.052Z,1.81
2023-02-27T17:05:41.690Z,1.80
2023-02-27T17:08:09.603Z,1.80
2023-02-27T17:10:36.160Z,1.79
2023-02-27T17:13:02.678Z,1.77
2023-02-27T17:15:29.215Z,1.66
2023-02-27T17:17:55.884Z,1.65
2023-02-27T17:20:23.257Z,1.69
2023-02-27T17:22:49.925Z,1.68
2023-02-27T17:25:16.569Z,1.61
2023-02-27T17:27:43.838Z,1.61
2023-02-27T17:30:10.818Z,1.62
2023-02-27T17:32:37.376Z,1.52
2023-02-27T17:35:04.263Z,1.56
2023-02-27T17:37:30.776Z,1.60
2023-02-27T17:39:57.300Z,1.53
2023-02-27T17:42:25.869Z,1.54
2023-02-27T17:44:52.649Z,1.48
2023-02-27T17:47:19.380Z,1.38
2023-02-27T17:49:46.429Z,1.35
2023-02-27T17:52:13.123Z,1.28
2023-02-27T17:54:39.749Z,1.31
2023-02-27T17:57:06.929Z,1.23
2023-02-27T17:59:33.709Z,1.20
2023-02-27T18:02:00.305Z,1.24
2023-02-27T18:04:27.040Z,1.33
2023-02-27T18:06:53.797Z,1.42
2023-02-27T18:09:20.342Z,1.42
2023-02-27T18:11:47.025Z,1.45
2023-02-27T18:14:13.943Z,1.40
2023-02-27T18:16:41.437Z,1.30
2023-02-27T18:19:08.128Z,1.25
2023-02-27T18:21:34.899Z,1.22
2023-02-27T18:24:01.569Z,1.19
2023-02-27T18:26:31.114Z,1.29
2023-02-27T18:29:00.357Z,1.31
2023-02-27T18:31:37.576Z,1.31
2023-02-27T18:34:04.245Z,1.28
2023-02-27T18:36:31.617Z,1.32
2023-02-27T18:38:58.665Z,1.32
2023-02-27T18:41:25.403Z,1.32
2023-02-27T18:43:52.031Z,1.37
2023-02-27T18:46:18.856Z,1.30
2023-02-27T18:48:45.599Z,1.31
2023-02-27T18:51:14.505Z,1.31
2023-02-27T18:53:41.649Z,1.35
2023-02-27T18:56:08.997Z,1.24
2023-02-27T18:58:35.783Z,1.20
2023-02-27T19:01:04.306Z,1.17
2023-02-27T19:03:31.119Z,1.15
2023-02-27T19:05:57.925Z,1.01
2023-02-27T19:08:31.582Z,0.92
2023-02-27T19:10:58.568Z,0.68
2023-02-27T19:13:25.471Z,0.46
2023-02-27T19:15:52.307Z,0.42
2023-02-27T19:18:18.878Z,0.37
2023-02-27T19:20:45.399Z,0.34
2023-02-27T19:23:11.960Z,0.28
2023-02-27T19:25:38.546Z,0.25
2023-02-27T19:28:06.547Z,0.19
2023-02-27T19:30:33.090Z,0.18
2023-02-27T19:32:59.701Z,0.18
2023-02-27T19:35:26.304Z,0.21
2023-02-27T19:37:57.119Z,0.18
2023-02-27T19:40:24.421Z,0.01
2023-02-27T19:42:51.495Z,-0.03
2023-02-27T19:45:18.020Z,-0.02
2023-02-27T19:47:45.023Z,-0.03
2023-02-27T19:50:11.822Z,-0.08
2023-02-27T19:52:41.109Z,-0.17
2023-02-27T19:55:07.963Z,-0.34
2023-02-27T19:57:35.010Z,-0.40
2023-02-27T20:00:01.551Z,-0.42
2023-02-27T20:02:28.193Z,-0.47
2023-02-27T20:04:54.814Z,-0.44
2023-02-27T20:07:21.376Z,-0.41
2023-02-27T20:09:47.944Z,-0.39
2023-02-27T20:12:14.508Z,-0.41
2023-02-27T20:14:41.210Z,-0.45
2023-02-27T20:17:08.244Z,-0.51
2023-02-27T20:19:36.540Z,-0.50
2023-02-27T20:22:03.093Z,-0.56
2023-02-27T20:24:29.677Z,-0.57
2023-02-27T20:26:59.175Z,-0.57
2023-02-27T20:29:26.469Z,-0.63
2023-02-27T20:31:53.672Z,-0.71
2023-02-27T20:34:25.871Z,-0.77
2023-02-27T20:36:53.042Z,-0.84
2023-02-27T20:39:20.157Z,-0.83
2023-02-27T20:41:46.747Z,-0.83
2023-02-27T20:44:13.517Z,-0.83
2023-02-27T20:46:40.776Z,-0.81
2023-02-27T20:49:07.453Z,-0.80
2023-02-27T20:51:36.172Z,-0.76
2023-02-27T20:54:03.609Z,-0.74
2023-02-27T20:56:31.418Z,-0.68
2023-02-27T20:58:59.772Z,-0.67
2023-02-27T21:01:26.560Z,-0.73
2023-02-27T21:03:55.738Z,-0.73
2023-02-27T21:06:22.501Z,-0.71
2023-02-27T21:08:49.612Z,-0.72
2023-02-27T21:11:17.432Z,-0.72
2023-02-27T21:13:44.358Z,-0.68
2023-02-27T21:16:11.706Z,-0.67
2023-02-27T21:18:38.377Z,-0.59
2023-02-27T21:21:05.625Z,-0.58
2023-02-27T21:23:32.277Z,-0.62
2023-02-27T21:25:59.104Z,-0.68
2023-02-27T21:28:25.905Z,-0.72
2023-02-27T21:30:54.684Z,-0.73
2023-02-27T21:33:22.447Z,-0.71
2023-02-27T21:35:49.143Z,-0.68
2023-02-27T21:38:16.565Z,-0.65
2023-02-27T21:40:43.555Z,-0.58
2023-02-27T21:43:10.092Z,-0.50
2023-02-27T21:45:41.576Z,-0.52
2023-02-27T21:48:08.407Z,-0.52
2023-02-27T21:50:36.033Z,-0.51
2023-02-27T21:53:02.556Z,-0.43
2023-02-27T21:55:29.098Z,-0.42
2023-02-27T21:57:55.653Z,-0.45
2023-02-27T22:00:26.501Z,-0.49
2023-02-27T22:02:53.426Z,-0.52
2023-02-27T22:05:20.191Z,-0.59
2023-02-27T22:07:47.013Z,-0.71
2023-02-27T22:10:13.558Z,-0.80
2023-02-27T22:12:40.105Z,-0.95
2023-02-27T22:15:06.862Z,-0.97
2023-02-27T22:17:33.445Z,-1.01
2023-02-27T22:20:00.073Z,-1.13
2023-02-27T22:22:26.716Z,-1.16
2023-02-27T22:24:53.253Z,-1.22
2023-02-27T22:27:20.163Z,-1.23
2023-02-27T22:29:46.718Z,-1.34
2023-02-27T22:32:13.275Z,-1.38
2023-02-27T22:34:39.825Z,-1.41
2023-02-27T22:37:06.392Z,-1.46
2023-02-27T22:39:32.922Z,-1.41
2023-02-27T22:41:59.520Z,-1.48
2023-02-27T22:44:26.184Z,-1.43
2023-02-27T22:46:54.719Z,-1.47
2023-02-27T22:49:22.334Z,-1.64
2023-02-27T22:51:50.944Z,-1.52
2023-02-27T22:54:18.397Z,-1.53
2023-02-27T22:56:45.097Z,-1.57
2023-02-27T22:59:11.626Z,-1.57
2023-02-27T23:01:38.248Z,-1.70
2023-02-27T23:04:06.270Z,-1.67
2023-02-27T23:06:34.194Z,-1.71
2023-02-27T23:09:01.092Z,-1.72
2023-02-27T23:11:28.155Z,-1.72
2023-02-27T23:13:54.853Z,-1.64
2023-02-27T23:16:21.436Z,-1.65
2023-02-27T23:18:49.190Z,-1.76
2023-02-27T23:21:16.490Z,-1.75
2023-02-27T23:23:43.404Z,-1.92
2023-02-27T23:26:09.940Z,-1.89
2023-02-27T23:28:36.863Z,-1.99
2023-02-27T23:31:06.316Z,-2.02
2023-02-27T23:33:32.970Z,-2.02
2023-02-27T23:35:59.579Z,-2.04
2023-02-27T23:38:26.317Z,-2.08
2023-02-27T23:40:52.870Z,-2.07
2023-02-27T23:43:38.307Z,-2.05
2023-02-27T23:46:06.197Z,-2.18
2023-02-27T23:48:32.790Z,-2.10
2023-02-27T23:50:59.367Z,-2.10
2023-02-27T23:53:26.075Z,-2.15
2023-02-27T23:55:52.647Z,-2.14
2023-02-27T23:58:19.205Z,-2.16
